createdAt,value
2023-04-30T00:00:00.861Z,19.95
2023-04-30T00:02:49.955Z,18.65
2023-04-30T00:05:36.882Z,18.80
2023-04-30T00:08:17.369Z,18.92
2023-04-30T00:11:03.966Z,18.45
2023-04-30T00:13:44.314Z,18.25
2023-04-30T00:16:30.845Z,18.58
2023-04-30T00:19:11.272Z,16.20
2023-04-30T00:21:57.770Z,17.98
2023-04-30T00:24:44.871Z,16.92
2023-04-30T00:27:31.794Z,17.10
2023-04-30T00:30:12.824Z,16.23
2023-04-30T00:32:59.830Z,17.60
2023-04-30T00:35:46.824Z,16.60
2023-04-30T00:38:26.919Z,16.02
2023-04-30T00:41:13.868Z,16.40
2023-04-30T00:43:53.930Z,17.13
2023-04-30T00:46:40.866Z,17.88
2023-04-30T00:49:22.070Z,16.63
2023-04-30T00:52:08.819Z,18.35
2023-04-30T00:54:48.988Z,15.98
2023-04-30T00:57:35.734Z,16.98
2023-04-30T01:00:23.740Z,17.45
2023-04-30T01:03:10.946Z,16.88
2023-04-30T01:05:50.890Z,16.45
2023-04-30T01:08:38.706Z,16.48
2023-04-30T01:11:31.771Z,17.10
2023-04-30T01:14:44.755Z,17.95
2023-04-30T01:17:52.985Z,16.55
2023-04-30T01:20:40.740Z,15.75
2023-04-30T01:23:45.773Z,16.02
2023-04-30T01:26:52.680Z,16.42
2023-04-30T01:29:33.901Z,17.05
2023-04-30T01:32:20.770Z,16.40
2023-04-30T01:35:03.091Z,16.70
2023-04-30T01:38:00.701Z,15.93
2023-04-30T01:40:47.751Z,16.58
2023-04-30T01:43:52.723Z,16.10
2023-04-30T01:46:43.798Z,16.80
2023-04-30T01:50:11.856Z,15.55
2023-04-30T01:53:00.717Z,17.05
2023-04-30T01:56:06.174Z,16.13
2023-04-30T01:58:53.707Z,16.70
2023-04-30T02:01:34.200Z,16.20
2023-04-30T02:04:20.717Z,16.25
2023-04-30T02:07:01.253Z,15.77
2023-04-30T02:09:47.698Z,16.35
2023-04-30T02:12:30.169Z,15.77
2023-04-30T02:15:17.694Z,15.70
2023-04-30T02:17:58.185Z,15.85
2023-04-30T02:20:44.656Z,16.95
2023-04-30T02:23:24.998Z,16.23
2023-04-30T02:26:11.597Z,15.20
2023-04-30T02:28:58.861Z,14.15
2023-04-30T02:31:38.696Z,16.50
2023-04-30T02:34:25.687Z,15.32
2023-04-30T02:37:05.730Z,14.48
2023-04-30T02:39:52.729Z,15.48
2023-04-30T02:42:46.687Z,14.55
2023-04-30T02:45:33.714Z,13.90
2023-04-30T02:48:13.687Z,14.40
2023-04-30T02:51:00.668Z,14.65
2023-04-30T02:53:40.739Z,14.57
2023-04-30T02:56:27.654Z,14.98
2023-04-30T02:59:08.759Z,15.90
2023-04-30T03:01:55.623Z,15.43
2023-04-30T03:04:36.717Z,14.50
2023-04-30T03:07:23.651Z,15.07
2023-04-30T03:10:03.698Z,16.20
2023-04-30T03:12:50.572Z,15.27
2023-04-30T03:15:30.983Z,16.17
2023-04-30T03:18:17.554Z,15.32
2023-04-30T03:20:57.768Z,14.70
2023-04-30T03:23:44.535Z,15.15
2023-04-30T03:26:24.650Z,14.50
2023-04-30T03:29:11.585Z,14.98
2023-04-30T03:31:58.602Z,15.00
2023-04-30T03:34:38.939Z,14.93
2023-04-30T03:37:25.528Z,14.88
2023-04-30T03:40:20.523Z,15.57
2023-04-30T03:43:01.027Z,17.60
2023-04-30T03:45:47.589Z,15.02
2023-04-30T03:48:34.510Z,15.73
2023-04-30T03:51:14.604Z,15.60
2023-04-30T03:54:01.495Z,16.10
2023-04-30T03:56:42.656Z,17.13
2023-04-30T03:59:29.550Z,16.70
2023-04-30T04:02:09.662Z,17.33
2023-04-30T04:04:57.504Z,16.33
2023-04-30T04:07:37.826Z,15.25
2023-04-30T04:10:24.556Z,20.35
2023-04-30T04:13:11.507Z,15.98
2023-04-30T04:15:52.070Z,16.17
2023-04-30T04:18:38.488Z,17.23
2023-04-30T04:21:19.256Z,17.80
2023-04-30T04:24:06.443Z,17.75
2023-04-30T04:26:48.124Z,16.15
2023-04-30T04:29:35.514Z,16.45
2023-04-30T04:32:15.932Z,16.58
2023-04-30T04:35:03.493Z,17.20
2023-04-30T04:37:45.177Z,16.67
2023-04-30T04:40:31.869Z,16.65
2023-04-30T04:43:12.371Z,18.30
2023-04-30T04:45:59.495Z,18.00
2023-04-30T04:48:39.835Z,17.92
2023-04-30T04:51:26.497Z,17.60
2023-04-30T04:54:13.415Z,19.05
2023-04-30T04:56:53.554Z,18.38
2023-04-30T04:59:40.474Z,19.25
2023-04-30T05:02:21.307Z,19.45
2023-04-30T05:05:09.436Z,20.38
2023-04-30T05:07:58.414Z,20.98
2023-04-30T05:10:45.505Z,19.55
2023-04-30T05:13:25.556Z,20.08
2023-04-30T05:16:12.465Z,18.00
2023-04-30T05:18:52.580Z,19.65
2023-04-30T05:21:39.510Z,19.38
2023-04-30T05:24:19.480Z,19.65
2023-04-30T05:27:06.393Z,19.83
2023-04-30T05:29:46.484Z,20.90
2023-04-30T05:32:34.431Z,19.88
2023-04-30T05:35:15.515Z,20.80
2023-04-30T05:38:02.390Z,20.83
2023-04-30T05:40:42.522Z,21.00
2023-04-30T05:43:29.451Z,20.08
2023-04-30T05:46:09.525Z,20.27
2023-04-30T05:48:56.417Z,19.67
2023-04-30T05:51:36.577Z,20.02
2023-04-30T05:54:23.332Z,20.02
2023-04-30T05:57:04.146Z,19.63
2023-04-30T05:59:51.491Z,19.98
2023-04-30T06:02:38.533Z,18.63
2023-04-30T06:05:25.336Z,20.10
2023-04-30T06:08:12.373Z,20.40
2023-04-30T06:10:59.338Z,19.45
2023-04-30T06:13:39.563Z,20.65
2023-04-30T06:16:26.443Z,20.55
2023-04-30T06:19:13.316Z,21.38
2023-04-30T06:22:00.396Z,23.17
2023-04-30T06:24:40.495Z,21.35
2023-04-30T06:27:27.341Z,20.48
2023-04-30T06:30:07.482Z,19.75
2023-04-30T06:32:54.405Z,18.75
2023-04-30T06:35:34.602Z,18.83
2023-04-30T06:38:21.306Z,21.10
2023-04-30T06:41:15.374Z,19.60
2023-04-30T06:44:02.336Z,18.50
2023-04-30T06:46:42.609Z,17.98
2023-04-30T06:49:29.364Z,18.25
2023-04-30T06:52:09.662Z,17.00
2023-04-30T06:54:56.353Z,13.88
2023-04-30T06:57:37.632Z,13.95
2023-04-30T07:00:24.323Z,14.25
2023-04-30T07:03:11.501Z,14.10
2023-04-30T07:06:00.360Z,14.00
2023-04-30T07:08:41.377Z,14.30
2023-04-30T07:11:28.306Z,14.40
2023-04-30T07:14:15.305Z,14.77
2023-04-30T07:17:03.308Z,14.50
2023-04-30T07:19:43.701Z,13.68
2023-04-30T07:22:30.273Z,13.55
2023-04-30T07:25:10.488Z,19.92
2023-04-30T07:40:36.351Z,14.52
2023-04-30T07:43:17.278Z,14.27
2023-04-30T07:46:04.108Z,14.57
2023-04-30T07:48:51.870Z,13.88
2023-04-30T07:51:39.958Z,14.93
2023-04-30T07:54:20.398Z,15.43
2023-04-30T07:57:06.888Z,13.85
2023-04-30T07:59:53.912Z,14.00
2023-04-30T08:02:34.182Z,14.25
2023-04-30T08:05:20.874Z,14.40
2023-04-30T08:08:01.059Z,13.50
2023-04-30T08:10:48.925Z,13.77
2023-04-30T08:13:38.286Z,14.73
2023-04-30T08:16:18.521Z,15.30
2023-04-30T08:19:04.869Z,13.35
2023-04-30T08:21:45.418Z,14.05
2023-04-30T08:24:31.916Z,14.10
2023-04-30T08:27:12.276Z,14.07
2023-04-30T08:29:58.912Z,19.13
2023-04-30T08:32:39.333Z,14.25
2023-04-30T08:35:25.908Z,14.27
2023-04-30T08:38:19.879Z,14.13
2023-04-30T08:41:18.860Z,18.08
2023-04-30T08:44:00.018Z,14.80
2023-04-30T08:46:48.879Z,15.00
2023-04-30T08:49:32.808Z,14.93
2023-04-30T08:52:19.820Z,14.60
2023-04-30T08:55:03.979Z,14.90
2023-04-30T08:57:50.850Z,14.00
2023-04-30T09:00:31.030Z,13.80
2023-04-30T09:03:17.942Z,13.40
2023-04-30T09:05:58.369Z,13.38
2023-04-30T09:08:55.900Z,14.07
2023-04-30T09:11:36.918Z,14.32
2023-04-30T09:14:31.860Z,14.25
2023-04-30T09:17:13.175Z,15.00
2023-04-30T09:19:59.827Z,14.65
2023-04-30T09:22:46.842Z,14.82
2023-04-30T09:25:39.548Z,15.60
2023-04-30T09:28:31.845Z,14.60
2023-04-30T09:31:28.812Z,15.07
2023-04-30T09:34:15.876Z,15.23
2023-04-30T09:36:58.072Z,16.08
2023-04-30T09:39:44.819Z,15.00
2023-04-30T09:42:31.835Z,14.93
2023-04-30T09:45:18.798Z,15.60
2023-04-30T09:48:12.848Z,15.88
2023-04-30T09:51:04.807Z,14.95
2023-04-30T09:53:45.430Z,15.45
2023-04-30T09:56:36.782Z,15.50
2023-04-30T09:59:21.511Z,14.93
2023-04-30T10:02:08.832Z,15.55
2023-04-30T10:05:02.774Z,16.23
2023-04-30T10:07:53.800Z,15.68
2023-04-30T10:10:43.818Z,16.15
2023-04-30T10:13:26.907Z,15.63
2023-04-30T10:16:33.799Z,15.75
2023-04-30T10:19:37.902Z,15.35
2023-04-30T10:22:25.805Z,16.27
2023-04-30T10:25:07.185Z,16.13
2023-04-30T10:27:53.736Z,16.15
2023-04-30T10:30:33.925Z,15.95
2023-04-30T10:33:26.843Z,14.93
2023-04-30T10:36:18.904Z,15.85
2023-04-30T10:39:06.799Z,15.50
2023-04-30T10:41:50.098Z,15.80
2023-04-30T10:44:39.753Z,15.50
2023-04-30T10:47:26.777Z,15.48
2023-04-30T10:50:10.956Z,16.35
2023-04-30T10:52:57.785Z,15.57
2023-04-30T10:56:08.775Z,15.52
2023-04-30T10:58:55.821Z,15.93
2023-04-30T11:02:02.970Z,17.15
2023-04-30T11:05:15.101Z,16.08
2023-04-30T11:08:05.733Z,15.95
2023-04-30T11:11:10.741Z,15.70
2023-04-30T11:14:18.722Z,16.92
2023-04-30T11:17:06.735Z,17.75
2023-04-30T11:19:48.918Z,15.60
2023-04-30T11:22:42.670Z,16.20
2023-04-30T11:25:29.738Z,15.57
2023-04-30T11:28:10.804Z,15.93
2023-04-30T11:30:57.783Z,16.17
2023-04-30T11:33:46.703Z,15.00
2023-04-30T11:36:30.931Z,16.83
2023-04-30T11:39:17.731Z,16.27
2023-04-30T11:41:58.087Z,15.82
2023-04-30T11:44:45.782Z,15.70
2023-04-30T11:47:32.761Z,15.23
2023-04-30T11:50:21.770Z,15.48
2023-04-30T11:53:03.322Z,16.20
2023-04-30T11:55:49.665Z,15.35
2023-04-30T11:58:34.330Z,15.40
2023-04-30T12:01:21.731Z,15.13
2023-04-30T12:04:10.901Z,16.50
2023-04-30T12:06:57.705Z,20.05
2023-04-30T12:10:02.783Z,16.25
2023-04-30T12:12:43.643Z,15.30
2023-04-30T12:15:35.674Z,16.42
2023-04-30T12:18:26.663Z,14.90
2023-04-30T12:21:07.273Z,15.60
2023-04-30T12:23:53.625Z,15.52
2023-04-30T12:26:46.665Z,15.65
2023-04-30T12:29:26.923Z,15.95
2023-04-30T12:32:13.691Z,15.30
2023-04-30T12:35:00.702Z,14.93
2023-04-30T12:37:50.258Z,22.00
2023-04-30T12:40:41.660Z,15.48
2023-04-30T12:43:28.706Z,15.63
2023-04-30T12:46:08.743Z,16.08
2023-04-30T12:48:55.695Z,15.77
2023-04-30T12:51:35.862Z,15.93
2023-04-30T12:54:22.659Z,15.27
2023-04-30T12:57:22.636Z,15.80
2023-04-30T13:00:06.222Z,15.80
2023-04-30T13:02:52.773Z,16.20
2023-04-30T13:05:33.272Z,15.93
2023-04-30T13:08:19.632Z,15.85
2023-04-30T13:11:06.780Z,15.35
2023-04-30T13:13:46.667Z,16.13
2023-04-30T13:16:27.472Z,15.77
2023-04-30T13:19:14.614Z,15.90
2023-04-30T13:21:55.414Z,15.88
2023-04-30T13:24:42.571Z,15.57
2023-04-30T13:27:29.739Z,16.38
2023-04-30T13:30:09.695Z,15.85
2023-04-30T13:32:56.655Z,15.65
2023-04-30T13:35:36.703Z,15.52
2023-04-30T13:41:47.553Z,14.98
2023-04-30T13:44:28.171Z,15.30
2023-04-30T13:47:14.558Z,14.85
2023-04-30T13:49:55.110Z,16.13
2023-04-30T13:52:42.572Z,15.90
2023-04-30T13:55:23.033Z,16.77
2023-04-30T13:58:10.544Z,16.02
2023-04-30T14:00:51.541Z,16.40
2023-04-30T14:03:38.641Z,16.45
2023-04-30T14:06:19.010Z,15.77
2023-04-30T14:09:05.523Z,16.05
2023-04-30T14:11:45.855Z,15.30
2023-04-30T14:14:32.520Z,15.38
2023-04-30T14:17:19.542Z,15.60
2023-04-30T14:19:59.801Z,15.60
2023-04-30T14:22:46.549Z,15.27
2023-04-30T14:25:26.833Z,14.50
2023-04-30T14:28:13.552Z,15.32
2023-04-30T14:30:53.641Z,14.88
2023-04-30T14:33:40.539Z,14.88
2023-04-30T14:36:27.485Z,15.07
2023-04-30T14:39:08.960Z,14.90
2023-04-30T14:41:56.472Z,14.10
2023-04-30T14:44:44.491Z,14.10
2023-04-30T14:47:27.362Z,14.30
2023-04-30T14:50:14.513Z,14.27
2023-04-30T14:52:54.596Z,13.35
2023-04-30T14:55:41.464Z,14.32
2023-04-30T14:58:21.739Z,14.35
2023-04-30T15:01:08.494Z,13.95
2023-04-30T15:03:55.532Z,14.60
2023-04-30T15:06:36.030Z,13.80
2023-04-30T15:09:22.568Z,13.85
2023-04-30T15:12:02.938Z,13.82
2023-04-30T15:14:49.461Z,15.00
2023-04-30T15:17:30.165Z,14.13
2023-04-30T15:20:18.411Z,14.05
2023-04-30T15:23:05.541Z,13.63
2023-04-30T15:25:45.755Z,14.80
2023-04-30T15:28:32.451Z,13.80
2023-04-30T15:31:19.399Z,13.13
2023-04-30T15:33:59.914Z,13.77
2023-04-30T15:36:46.404Z,13.98
2023-04-30T15:39:41.431Z,14.02
2023-04-30T15:42:35.399Z,14.02
2023-04-30T15:45:16.342Z,14.33
2023-04-30T15:48:03.444Z,13.63
2023-04-30T15:50:43.877Z,13.90
2023-04-30T15:53:30.441Z,13.30
2023-04-30T15:56:17.395Z,13.13
2023-04-30T15:59:04.418Z,13.50
2023-04-30T16:01:51.436Z,13.55
2023-04-30T16:04:38.387Z,13.52
2023-04-30T16:07:18.828Z,13.80
2023-04-30T16:10:05.428Z,14.48
2023-04-30T16:12:52.354Z,14.27
2023-04-30T16:15:32.574Z,14.20
2023-04-30T16:18:19.405Z,14.02
2023-04-30T16:21:07.363Z,14.32
2023-04-30T16:23:55.441Z,14.38
2023-04-30T16:26:36.219Z,14.38
2023-04-30T16:29:24.400Z,14.45
2023-04-30T16:32:11.534Z,16.48
2023-04-30T16:34:52.314Z,15.00
2023-04-30T16:37:39.389Z,15.35
2023-04-30T16:40:19.873Z,15.40
2023-04-30T16:43:09.420Z,15.27
2023-04-30T16:45:50.097Z,15.70
2023-04-30T16:48:37.345Z,15.38
2023-04-30T16:51:17.748Z,14.50
2023-04-30T16:54:04.340Z,15.18
2023-04-30T16:56:44.723Z,16.45
2023-04-30T16:59:31.342Z,15.45
2023-04-30T17:02:18.414Z,15.13
2023-04-30T17:04:58.437Z,15.55
2023-04-30T17:07:45.335Z,14.98
2023-04-30T17:10:33.398Z,15.35
2023-04-30T17:13:13.930Z,15.18
2023-04-30T17:16:03.390Z,16.48
2023-04-30T17:18:50.336Z,15.95
2023-04-30T17:21:30.462Z,20.33
2023-04-30T17:24:18.338Z,16.52
2023-04-30T17:27:06.290Z,14.98
2023-04-30T17:29:53.419Z,16.95
2023-04-30T17:32:40.322Z,16.83
2023-04-30T17:35:21.167Z,15.13
2023-04-30T17:38:08.377Z,16.58
2023-04-30T17:40:55.287Z,16.33
2023-04-30T17:43:35.576Z,14.90
2023-04-30T17:46:22.398Z,15.65
2023-04-30T17:49:03.693Z,15.77
2023-04-30T17:51:50.262Z,15.95
2023-04-30T17:54:31.005Z,16.95
2023-04-30T17:57:18.292Z,15.15
2023-04-30T17:59:59.091Z,17.38
2023-04-30T18:02:53.385Z,17.35
2023-04-30T18:05:41.277Z,15.68
2023-04-30T18:08:21.995Z,15.25
2023-04-30T18:11:12.207Z,15.85
2023-04-30T18:14:02.248Z,15.27
2023-04-30T18:16:42.809Z,17.25
2023-04-30T18:19:29.204Z,15.77
2023-04-30T18:22:16.193Z,17.58
2023-04-30T18:25:04.096Z,16.95
2023-04-30T18:27:44.284Z,16.38
2023-04-30T18:30:24.633Z,16.50
2023-04-30T18:33:05.347Z,16.55
2023-04-30T18:35:56.294Z,16.15
2023-04-30T18:38:45.186Z,15.73
2023-04-30T18:41:40.169Z,16.08
2023-04-30T18:44:30.557Z,16.52
2023-04-30T18:47:18.162Z,15.35
2023-04-30T18:49:59.261Z,16.85
2023-04-30T18:52:46.205Z,16.65
2023-04-30T18:55:33.263Z,16.73
2023-04-30T18:58:13.274Z,17.33
2023-04-30T19:01:04.236Z,17.95
2023-04-30T19:03:44.586Z,17.38
2023-04-30T19:06:31.220Z,17.08
2023-04-30T19:09:18.219Z,17.45
2023-04-30T19:12:05.219Z,17.48
2023-04-30T19:14:45.869Z,17.27
2023-04-30T19:17:32.214Z,17.38
2023-04-30T19:20:12.257Z,18.00
2023-04-30T19:22:59.162Z,17.65
2023-04-30T19:41:47.593Z,18.17
2023-04-30T19:44:29.458Z,17.55
2023-04-30T19:47:16.530Z,17.92
2023-04-30T19:50:04.563Z,18.20
2023-04-30T19:52:44.702Z,16.77
2023-04-30T19:55:31.690Z,17.65
2023-04-30T19:58:11.754Z,16.48
2023-04-30T20:01:00.598Z,16.73
2023-04-30T20:03:41.808Z,17.10
2023-04-30T20:06:28.599Z,18.75
2023-04-30T20:09:08.634Z,17.58
2023-04-30T20:11:57.503Z,18.15
2023-04-30T20:14:37.656Z,17.63
2023-04-30T20:17:24.587Z,17.27
2023-04-30T20:20:12.503Z,16.15
2023-04-30T20:23:01.581Z,17.55
2023-04-30T20:25:45.441Z,16.50
2023-04-30T20:28:33.330Z,16.45
2023-04-30T20:31:21.578Z,17.23
2023-04-30T20:34:01.953Z,17.92
2023-04-30T20:36:48.524Z,18.02
2023-04-30T20:39:42.488Z,17.17
2023-04-30T20:42:23.307Z,17.13
2023-04-30T20:45:10.527Z,17.27
2023-04-30T20:47:50.888Z,17.77
2023-04-30T20:50:37.470Z,17.27
2023-04-30T20:53:18.799Z,17.70
2023-04-30T20:56:06.630Z,16.58
2023-04-30T20:58:53.454Z,16.60
2023-04-30T21:01:40.694Z,16.52
2023-04-30T21:04:20.813Z,16.20
2023-04-30T21:07:08.468Z,16.13
2023-04-30T21:09:55.620Z,15.88
2023-04-30T21:12:35.555Z,15.98
2023-04-30T21:15:22.430Z,16.05
2023-04-30T21:18:02.932Z,16.70
2023-04-30T21:20:49.441Z,16.38
2023-04-30T21:23:30.058Z,16.27
2023-04-30T21:26:17.417Z,16.95
2023-04-30T21:28:57.552Z,16.80
2023-04-30T21:31:44.410Z,16.60
2023-04-30T21:34:31.431Z,16.05
2023-04-30T21:37:11.837Z,16.73
2023-04-30T21:39:58.422Z,16.25
2023-04-30T21:42:39.875Z,17.02
2023-04-30T21:45:26.370Z,16.55
2023-04-30T21:48:13.421Z,16.63
2023-04-30T21:50:53.501Z,17.25
2023-04-30T21:53:40.407Z,16.95
2023-04-30T21:56:27.380Z,17.25
2023-04-30T21:59:14.354Z,16.35
2023-04-30T22:01:54.465Z,17.35
2023-04-30T22:04:41.353Z,16.23
2023-04-30T22:07:22.334Z,17.67
2023-04-30T22:10:12.405Z,18.95
2023-04-30T22:12:52.556Z,18.85
2023-04-30T22:18:34.314Z,19.25
2023-04-30T22:21:21.524Z,18.48
2023-04-30T22:24:01.369Z,18.45
2023-04-30T22:26:41.709Z,18.45
2023-04-30T22:29:28.375Z,18.85
2023-04-30T22:32:16.315Z,19.60
2023-04-30T22:34:56.719Z,18.88
2023-04-30T22:37:46.300Z,18.70
2023-04-30T22:40:33.359Z,17.95
2023-04-30T22:43:14.126Z,16.27
2023-04-30T22:46:01.278Z,16.60
2023-04-30T22:48:42.605Z,16.30
2023-04-30T22:51:29.279Z,16.45
2023-04-30T22:54:10.054Z,16.90
2023-04-30T22:56:57.280Z,16.67
2023-04-30T22:59:37.952Z,16.77
2023-04-30T23:02:24.344Z,17.05
2023-04-30T23:05:12.937Z,15.57
2023-04-30T23:07:56.319Z,15.75
2023-04-30T23:10:43.302Z,15.05
2023-04-30T23:13:23.642Z,15.25
2023-04-30T23:16:12.362Z,15.43
2023-04-30T23:18:52.387Z,15.85
2023-04-30T23:21:40.311Z,14.98
2023-04-30T23:24:20.336Z,15.85
2023-04-30T23:27:07.223Z,16.52
2023-04-30T23:29:54.354Z,16.40
2023-04-30T23:32:41.333Z,16.88
2023-04-30T23:35:21.376Z,17.48
2023-04-30T23:38:08.261Z,19.75
2023-04-30T23:40:56.290Z,19.83
2023-04-30T23:43:36.814Z,20.30
2023-04-30T23:46:23.304Z,19.58
2023-04-30T23:49:03.867Z,20.23
2023-04-30T23:51:57.203Z,20.92
2023-04-30T23:54:37.561Z,20.63
2023-04-30T23:57:24.274Z,19.60
